Time;durP1;ratioP1;P1;durP2;ratioP2;P2;SDS_P1;SDS_P2;PMS_P1;PMS_P2;Temp;Humidity;BMP_temperature;BMP_pressure;BME280_temperature;BME280_humidity;BME280_pressure;Samples;Min_cycle;Max_cycle;Signal;HPM_P1;HPM_P2
2022/08/17 00:07:22;;;;;;;6.22;4.03;;;;;;;19.12;80.62;97149.06;18280669;32;20068;-62
2022/08/17 00:17:25;;;;;;;4.35;4.03;;;;;;;19.34;82.54;97190.91;18280179;32;20054;-62
2022/08/17 00:27:28;;;;;;;;;;;;;;;19.29;86.92;97203.72;18294067;32;20074;-62
2022/08/17 00:37:31;;;;;;;5.72;4.85;;;;;;;19.22;89.16;97200.69;18293694;32;19950;-62
2022/08/17 00:47:34;;;;;;;7.80;5.17;;;;;;;19.13;91.22;97208.22;18292704;32;20101;-62
2022/08/17 00:57:45;;;;;;;5.97;4.33;;;;;;;19.05;92.48;97195.38;18294884;32;20129;-62
2022/08/17 01:07:51;;;;;;;7.78;4.70;;;;;;;18.94;94.77;97190.34;18289209;32;20047;-62
2022/08/17 01:17:54;;;;;;;6.70;4.37;;;;;;;18.91;96.25;97207.47;18302413;32;20403;-62
2022/08/17 01:27:57;;;;;;;5.03;4.53;;;;;;;18.88;95.72;97210.06;18301681;32;20073;-62
2022/08/17 01:38:00;;;;;;;6.18;4.47;;;;;;;18.86;96.11;97204.09;18301362;32;20076;-62
2022/08/17 01:48:02;;;;;;;4.60;4.07;;;;;;;18.74;96.42;97213.03;18300986;32;20057;-62
2022/08/17 01:58:08;;;;;;;5.33;4.80;;;;;;;18.71;97.30;97230.16;18299931;32;20097;-62
2022/08/17 02:08:11;;;;;;;6.30;4.25;;;;;;;18.70;97.80;97245.75;18299838;32;20476;-62
2022/08/17 02:18:22;;;;;;;5.18;4.05;;;;;;;18.71;98.22;97241.09;18299144;32;20058;-63
2022/08/17 02:28:25;;;;;;;6.53;4.47;;;;;;;18.73;99.39;97252.50;18298969;32;20058;-62
2022/08/17 02:38:28;;;;;;;4.00;3.67;;;;;;;18.70;98.89;97275.88;18298412;32;20430;-62
2022/08/17 02:48:30;;;;;;;8.30;5.00;;;;;;;18.72;98.93;97298.28;18271650;32;20197;-62
2022/08/17 02:58:34;;;;;;;5.80;4.37;;;;;;;18.67;99.24;97290.25;18297009;32;20046;-62
2022/08/17 03:08:37;;;;;;;;;;;;;;;18.65;100.00;97283.50;18283290;32;20054;-62
2022/08/17 03:18:39;;;;;;;5.05;3.53;;;;;;;18.49;100.00;97267.66;18296239;32;19953;-63
2022/08/17 03:28:42;;;;;;;6.50;4.35;;;;;;;18.34;100.00;97260.03;18282569;32;20049;-62
2022/08/17 03:38:44;;;;;;;4.90;4.00;;;;;;;18.16;100.00;97235.50;18295361;32;20101;-62
2022/08/17 03:59:13;;;;;;;5.45;4.18;;;;;;;17.90;100.00;97269.22;18294414;32;20046;-62
2022/08/17 04:09:23;;;;;;;4.15;3.75;;;;;;;17.84;100.00;97280.66;18294132;32;20077;-62
2022/08/17 04:19:26;;;;;;;7.10;4.17;;;;;;;17.79;100.00;97318.00;18280235;32;20064;-62
2022/08/17 04:29:30;;;;;;;5.37;4.10;;;;;;;17.89;100.00;97343.41;18293611;32;20430;-62
2022/08/17 04:42:05;;;;;;;4.80;4.25;;;;;;;17.87;100.00;97275.34;18304364;32;20076;-62
2022/08/17 04:50:15;;;;;;;4.10;3.62;;;;;;;17.84;100.00;97254.12;18303925;32;20094;-62
2022/08/17 05:00:18;;;;;;;4.97;3.60;;;;;;;17.70;100.00;97237.13;18264316;32;20090;-62
2022/08/17 05:10:22;;;;;;;4.82;4.03;;;;;;;17.73;100.00;97217.31;18288857;32;20152;-62
2022/08/17 05:20:26;;;;;;;4.95;4.15;;;;;;;17.85;100.00;97211.97;18301991;32;20050;-62
2022/08/17 05:30:29;;;;;;;6.68;5.22;;;;;;;18.03;100.00;97233.78;18287630;32;20062;-62
2022/08/17 05:40:39;;;;;;;4.78;4.12;;;;;;;18.11;100.00;97213.78;18301133;32;20066;-62
2022/08/17 05:51:02;;;;;;;4.07;3.67;;;;;;;18.19;100.00;97231.31;18300350;32;20085;-63
2022/08/17 06:01:54;;;;;;;7.43;4.93;;;;;;;18.42;100.00;97215.38;18300034;32;20373;-63
2022/08/17 06:12:03;;;;;;;4.28;3.80;;;;;;;18.70;100.00;97228.53;18299773;32;20055;-63
2022/08/17 06:22:12;;;;;;;6.20;3.80;;;;;;;19.07;100.00;97236.97;18299467;32;20042;-62
2022/08/17 06:32:18;;;;;;;7.45;5.07;;;;;;;19.63;100.00;97226.37;18298419;32;20054;-63
2022/08/17 06:42:52;;;;;;;;;;;;;;;19.74;100.00;97215.75;18298440;32;20113;-62
2022/08/17 06:53:26;;;;;;;4.07;3.65;;;;;;;19.83;100.00;97212.97;18286032;32;20129;-62
2022/08/17 07:03:56;;;;;;;4.35;3.95;;;;;;;20.06;100.00;97196.84;18298139;32;20420;-63
2022/08/17 07:14:02;;;;;;;5.03;3.53;;;;;;;20.51;100.00;97222.50;18296616;32;20156;-63
2022/08/17 07:24:22;;;;;;;5.47;3.22;;;;;;;21.15;99.51;97228.28;18296353;32;20050;-63
2022/08/17 07:35:07;;;;;;;4.22;3.80;;;;;;;21.30;98.79;97232.22;18295897;32;20077;-63
2022/08/17 07:48:18;;;;;;;3.78;3.37;;;;;;;22.03;92.77;97240.41;18295182;32;20065;-63
2022/08/17 07:55:40;;;;;;;3.50;3.10;;;;;;;21.98;92.58;97222.19;18280871;32;20054;-63
2022/08/17 08:05:56;;;;;;;3.72;3.05;;;;;;;21.96;93.37;97235.50;18284957;32;20463;-63
2022/08/17 08:16:27;;;;;;;4.12;3.30;;;;;;;21.91;91.97;97255.84;18301105;32;20061;-62
2022/08/17 08:26:46;;;;;;;4.45;4.05;;;;;;;22.59;92.73;97281.47;18314936;32;20042;-62
2022/08/17 08:37:13;;;;;;;5.00;4.22;;;;;;;23.43;88.91;97301.38;18300390;32;20086;-63
2022/08/17 08:47:55;;;;;;;5.03;4.07;;;;;;;23.03;85.38;97354.91;18313732;32;20066;-63
2022/08/17 08:59:31;;;;;;;4.93;4.22;;;;;;;22.04;82.65;97420.94;18304467;32;20076;-63
2022/08/17 09:10:54;;;;;;;4.87;3.50;;;;;;;21.32;86.30;97491.97;18115097;32;20147;-62
2022/08/17 09:21:40;;;;;;;;;;;;;;;;;;;;;
2022/08/17 09:32:25;;;;;;;5.10;3.15;;;;;;;20.92;97.42;97368.19;18104218;32;20147;-63
2022/08/17 09:42:58;;;;;;;5.37;3.42;;;;;;;21.53;96.74;97366.44;18195502;32;20381;-63
2022/08/17 09:53:22;;;;;;;3.40;2.58;;;;;;;21.53;94.69;97342.50;18300164;32;20452;-63
2022/08/17 10:04:23;;;;;;;4.82;3.33;;;;;;;21.71;96.41;97347.69;18300301;32;20090;-63
2022/08/17 10:26:26;;;;;;;4.57;3.55;;;;;;;23.25;83.31;97358.94;18283879;32;20442;-63
2022/08/17 10:37:02;;;;;;;3.53;2.72;;;;;;;23.73;87.90;97367.00;18286829;32;20383;-63
2022/08/17 10:47:07;;;;;;;4.20;3.22;;;;;;;24.49;79.54;97396.03;18298271;32;20109;-63
2022/08/17 10:57:40;;;;;;;3.42;3.00;;;;;;;24.06;84.38;97368.44;18297302;32;20062;-63
2022/08/17 11:07:49;;;;;;;3.30;2.87;;;;;;;24.22;82.55;97364.78;18284450;32;20062;-63
2022/08/17 11:18:19;;;;;;;3.83;2.70;;;;;;;25.03;70.53;97370.03;18296738;32;20076;-63
2022/08/17 11:28:47;;;;;;;3.50;2.30;;;;;;;25.24;68.59;97370.72;18296030;32;20063;-63
2022/08/17 11:39:03;;;;;;;5.75;2.50;;;;;;;25.16;57.71;97350.44;18295566;32;20058;-63
2022/08/17 12:12:32;;;;;;;6.72;3.35;;;;;;;26.04;61.21;97327.00;18097231;32;20462;-63
2022/08/17 12:23:44;;;;;;;4.28;3.25;;;;;;;25.77;55.73;97322.75;18085130;32;20079;-63
2022/08/17 12:34:54;;;;;;;;;;;;;;;;;;;;;
2022/08/17 12:56:52;;;;;;;4.67;2.43;;;;;;;27.95;43.43;97287.66;17959833;32;20084;-63
2022/08/17 13:07:04;;;;;;;3.20;2.12;;;;;;;27.89;49.32;97281.69;17931706;32;20507;-62
2022/08/17 13:17:25;;;;;;;2.30;2.00;;;;;;;28.73;45.29;97259.03;18097652;32;20078;-62
2022/08/17 13:27:42;;;;;;;2.40;2.15;;;;;;;28.88;39.86;97253.44;18176482;32;20388;-62
2022/08/17 13:38:07;;;;;;;2.60;2.08;;;;;;;29.85;41.98;97225.13;18175925;32;20055;-62
2022/08/17 13:48:17;;;;;;;2.40;2.17;;;;;;;28.99;45.17;97209.66;18175772;32;20050;-62
2022/08/17 13:58:40;;;;;;;4.60;2.53;;;;;;;28.33;44.98;97180.44;18241198;32;20481;-62
2022/08/17 14:08:43;;;;;;;4.50;2.67;;;;;;;27.62;47.62;97153.50;18299682;32;20434;-63
2022/08/17 14:18:47;;;;;;;3.70;2.70;;;;;;;26.26;50.35;97158.16;18285593;32;20073;-63
2022/08/17 14:28:59;;;;;;;10.32;4.60;;;;;;;25.35;55.39;97177.97;18285149;32;20454;-62
2022/08/17 14:39:22;;;;;;;7.65;4.30;;;;;;;24.26;66.40;97260.66;18298814;32;20075;-62
2022/08/17 14:49:29;;;;;;;4.20;3.17;;;;;;;18.84;86.85;97357.78;18296258;32;20066;-62
2022/08/17 14:59:31;;;;;;;12.32;6.18;;;;;;;17.93;97.70;97260.38;18295324;32;20059;-62
2022/08/17 15:09:38;;;;;;;8.07;5.68;;;;;;;18.52;99.20;97277.94;18296548;32;20467;-63
2022/08/17 15:19:42;;;;;;;4.85;4.35;;;;;;;19.57;100.00;97208.56;18295768;32;20110;-63
2022/08/17 15:29:49;;;;;;;6.55;5.40;;;;;;;20.26;100.00;97241.75;18296043;32;20117;-63
2022/08/17 15:39:53;;;;;;;6.60;4.50;;;;;;;21.15;100.00;97231.81;18282700;32;20054;-63
2022/08/17 15:49:57;;;;;;;5.53;4.10;;;;;;;21.33;99.59;97248.81;18295150;32;20106;-63
2022/08/17 16:00:05;;;;;;;7.40;4.07;;;;;;;21.48;98.72;97240.94;18281165;32;20054;-63
2022/08/17 16:10:09;;;;;;;5.45;3.95;;;;;;;21.27;97.54;97230.97;18294420;32;20050;-63
2022/08/17 16:20:18;;;;;;;6.00;3.70;;;;;;;20.88;98.62;97230.66;18281213;32;20078;-63
2022/08/17 16:30:24;;;;;;;5.55;4.60;;;;;;;20.73;98.94;97217.69;18286319;32;20046;-62
2022/08/17 16:40:29;;;;;;;3.85;3.42;;;;;;;20.38;100.00;97210.75;18304481;32;20122;-63
2022/08/17 16:50:43;;;;;;;4.75;3.75;;;;;;;20.39;100.00;97187.66;18291288;32;20425;-63
2022/08/17 17:01:09;;;;;;;4.47;3.55;;;;;;;20.22;100.00;97172.22;18303021;32;20078;-63
2022/08/17 17:11:32;;;;;;;;;;;;;;;20.05;100.00;97180.69;18303169;32;20098;-63
2022/08/17 17:21:50;;;;;;;4.53;3.70;;;;;;;19.84;100.00;97165.16;18289264;32;19972;-62
2022/08/17 17:32:12;;;;;;;4.15;3.33;;;;;;;19.44;100.00;97191.25;18302211;32;20454;-63
2022/08/17 17:42:23;;;;;;;6.95;4.37;;;;;;;19.37;100.00;97192.97;18301012;32;20111;-63
2022/08/17 17:52:37;;;;;;;18.70;5.72;;;;;;;19.29;100.00;97217.41;18300887;32;20098;-63
2022/08/17 18:02:53;;;;;;;9.10;4.57;;;;;;;19.01;100.00;97285.69;18236084;32;20358;-63
2022/08/17 18:13:16;;;;;;;17.90;4.28;;;;;;;18.59;100.00;97330.22;18223420;32;20062;-63
2022/08/17 18:23:20;;;;;;;6.62;4.30;;;;;;;18.21;100.00;97322.88;18236678;32;20107;-63
2022/08/17 18:33:29;;;;;;;5.43;3.90;;;;;;;17.64;100.00;97325.91;18223251;32;20058;-63
2022/08/17 18:43:35;;;;;;;7.53;4.67;;;;;;;17.41;100.00;97399.91;18235023;32;20061;-63
2022/08/17 18:54:16;;;;;;;6.60;4.47;;;;;;;17.28;100.00;97440.72;18239203;32;20094;-63
2022/08/17 19:04:36;;;;;;;6.28;4.18;;;;;;;16.84;100.00;97430.78;18297788;32;20057;-63
2022/08/17 19:14:40;;;;;;;4.80;3.50;;;;;;;16.88;100.00;97404.47;18270826;32;20110;-63
2022/08/17 19:24:44;;;;;;;6.25;3.70;;;;;;;16.83;100.00;97413.62;18296438;32;20488;-63
2022/08/17 19:34:49;;;;;;;7.78;4.30;;;;;;;16.70;100.00;97458.22;18295832;32;20092;-63
2022/08/17 19:45:11;;;;;;;;;;;;;;;16.71;100.00;97479.72;18282426;32;20066;-63
2022/08/17 19:55:30;;;;;;;5.00;4.00;;;;;;;16.67;100.00;97516.19;18295381;32;19964;-63
2022/08/17 20:05:40;;;;;;;7.72;3.90;;;;;;;16.62;100.00;97566.22;18280950;32;20073;-63
2022/08/17 20:16:04;;;;;;;4.35;3.53;;;;;;;16.56;100.00;97554.66;18272637;32;20097;-63
2022/08/17 20:26:06;;;;;;;;;;;;;;;16.56;100.00;97571.03;18280800;32;20102;-63
2022/08/17 20:36:23;;;;;;;5.00;3.55;;;;;;;16.53;100.00;97566.19;18293476;32;19953;-63
2022/08/17 20:46:31;;;;;;;6.35;4.47;;;;;;;16.62;100.00;97576.38;18293525;32;20480;-63
2022/08/17 20:56:43;;;;;;;8.43;4.30;;;;;;;16.64;100.00;97601.44;18279233;32;20073;-63
2022/08/17 21:07:23;;;;;;;10.43;3.72;;;;;;;16.60;100.00;97582.12;18292389;32;20061;-63
2022/08/17 21:17:35;;;;;;;5.93;4.20;;;;;;;16.67;100.00;97603.53;18283649;32;20097;-63
2022/08/17 21:27:57;;;;;;;7.00;3.87;;;;;;;16.67;100.00;97601.59;18302319;32;20128;-63
2022/08/17 21:38:03;;;;;;;4.55;3.37;;;;;;;16.66;100.00;97605.44;18301635;32;20433;-63
2022/08/17 21:48:15;;;;;;;6.35;4.95;;;;;;;16.67;100.00;97601.59;18301472;32;20058;-63
2022/08/17 21:58:33;;;;;;;5.30;4.00;;;;;;;16.63;100.00;97583.44;18300433;32;20043;-63
2022/08/17 22:08:35;;;;;;;5.60;3.62;;;;;;;16.64;100.00;97571.41;18286792;32;20476;-63
2022/08/17 22:18:39;;;;;;;5.43;3.60;;;;;;;16.62;100.00;97543.59;18286126;32;20097;-63
2022/08/17 22:28:51;;;;;;;7.57;5.20;;;;;;;16.53;100.00;97541.63;18285211;32;20107;-63
2022/08/17 22:39:05;;;;;;;6.37;4.90;;;;;;;16.40;100.00;97532.41;18298808;32;20114;-63
2022/08/17 22:49:09;;;;;;;7.95;6.10;;;;;;;16.36;100.00;97516.97;18298484;32;20145;-63
2022/08/17 22:59:31;;;;;;;9.93;5.93;;;;;;;16.34;100.00;97527.41;18284415;32;20422;-63
2022/08/17 23:09:34;;;;;;;5.30;3.95;;;;;;;16.31;100.00;97555.28;18297441;32;20066;-63
2022/08/17 23:19:37;;;;;;;6.63;4.33;;;;;;;16.35;100.00;97559.81;18296850;32;20082;-63
2022/08/17 23:29:40;;;;;;;6.32;4.62;;;;;;;16.33;100.00;97550.34;18282781;32;20054;-63
2022/08/17 23:39:44;;;;;;;6.15;3.67;;;;;;;16.21;100.00;97553.59;18268552;32;20370;-65
2022/08/17 23:49:46;;;;;;;7.45;4.35;;;;;;;16.17;100.00;97537.06;18295553;32;20058;-63
2022/08/17 23:59:55;;;;;;;6.45;4.60;;;;;;;16.03;100.00;97530.84;18269862;32;20080;-63
